Terminal Aerodrome Forecast
Issued by NWS

Home | Current Version | Previous Version | Text Only | Print | Product List | Glossary On
Versions: 1 2 3 4 5 6 7 8 9 10 11 12 13 14 15 16 17 18 19 20 21 22 23 24
299
FTUS42 KJAX 111759 AAA
TAFCRG
TAF AMD
KCRG 111759Z 1118/1218 26007KT P6SM SKC
     FM112300 24006KT P6SM SKC
     FM121400 23013G24KT P6SM FEW030 SCT050=

USA.gov is the U.S. government's official web portal to all federal, state and local government web resources and services.